createdAt,value
2018-09-08T00:04:40.000Z,22.6
2018-09-08T00:14:40.000Z,22.6
2018-09-08T00:24:40.000Z,22.5
2018-09-08T00:34:42.000Z,22.6
2018-09-08T00:44:40.000Z,22.7
2018-09-08T00:54:40.000Z,22.6
2018-09-08T01:04:40.000Z,22.7
2018-09-08T01:14:40.000Z,22.6
2018-09-08T01:24:40.000Z,22.7
2018-09-08T01:34:40.000Z,22.6
2018-09-08T01:44:40.000Z,22.6
2018-09-08T01:54:40.000Z,22.6
2018-09-08T02:04:41.000Z,22.6
2018-09-08T02:14:40.000Z,22.6
2018-09-08T02:24:40.000Z,22.6
2018-09-08T02:34:40.000Z,22.7
2018-09-08T02:44:40.000Z,22.6
2018-09-08T02:54:40.000Z,22.6
2018-09-08T03:04:40.000Z,22.6
2018-09-08T03:14:40.000Z,22.6
2018-09-08T03:24:40.000Z,22.6
2018-09-08T03:34:40.000Z,22.6
2018-09-08T03:44:40.000Z,22.6
2018-09-08T03:54:40.000Z,22.6
2018-09-08T04:04:40.000Z,22.6
2018-09-08T04:14:40.000Z,22.6
2018-09-08T04:24:40.000Z,22.6
2018-09-08T04:34:40.000Z,22.8
2018-09-08T04:44:40.000Z,22.6
2018-09-08T04:54:40.000Z,22.5
2018-09-08T05:04:40.000Z,22.6
2018-09-08T05:14:40.000Z,22.7
2018-09-08T05:24:40.000Z,22.6
2018-09-08T05:34:40.000Z,22.4
2018-09-08T05:44:40.000Z,21.6
2018-09-08T05:54:40.000Z,21.3
2018-09-08T06:04:40.000Z,21
2018-09-08T06:14:40.000Z,21
2018-09-08T06:24:40.000Z,20.9
2018-09-08T06:34:41.000Z,20.9
2018-09-08T06:44:41.000Z,20.9
2018-09-08T06:54:41.000Z,20.9
2018-09-08T07:04:41.000Z,20.9
2018-09-08T07:14:41.000Z,20.8
2018-09-08T07:24:41.000Z,20.9
2018-09-08T07:34:41.000Z,21
2018-09-08T07:44:41.000Z,21.1
2018-09-08T07:54:41.000Z,21.2
2018-09-08T08:04:41.000Z,21.2
2018-09-08T08:14:41.000Z,21.2
2018-09-08T08:24:41.000Z,21.3
2018-09-08T08:34:41.000Z,21.5
2018-09-08T08:44:41.000Z,21.6
2018-09-08T08:54:41.000Z,21.7
2018-09-08T09:04:41.000Z,21.7
2018-09-08T09:14:41.000Z,21.8
2018-09-08T09:24:41.000Z,22
2018-09-08T09:34:41.000Z,22
2018-09-08T09:44:41.000Z,22
2018-09-08T09:54:41.000Z,22.1
2018-09-08T10:04:41.000Z,22.2
2018-09-08T10:14:41.000Z,22.1
2018-09-08T10:24:41.000Z,22.2
2018-09-08T10:34:41.000Z,22.1
2018-09-08T10:44:41.000Z,22.2
2018-09-08T10:54:41.000Z,22.1
2018-09-08T11:04:42.000Z,22.2
2018-09-08T11:14:41.000Z,22.3
2018-09-08T11:24:41.000Z,22.2
2018-09-08T11:34:41.000Z,22.2
2018-09-08T11:44:41.000Z,22.2
2018-09-08T11:54:41.000Z,22.2
2018-09-08T12:04:41.000Z,22.2
2018-09-08T12:14:41.000Z,22.2
2018-09-08T12:24:41.000Z,22.2
2018-09-08T12:34:41.000Z,22.1
2018-09-08T12:44:41.000Z,22.2
2018-09-08T12:54:42.000Z,22.3
2018-09-08T13:04:41.000Z,22.3
2018-09-08T13:14:41.000Z,22.3
2018-09-08T13:24:41.000Z,22.3
2018-09-08T13:34:42.000Z,22.3
2018-09-08T13:44:42.000Z,22.4
2018-09-08T13:54:42.000Z,22.4
2018-09-08T14:04:42.000Z,22.3
2018-09-08T14:14:42.000Z,22.5
2018-09-08T14:24:42.000Z,22.4
2018-09-08T14:34:42.000Z,22.5
2018-09-08T14:44:42.000Z,22.6
2018-09-08T14:54:42.000Z,22.6
2018-09-08T15:04:42.000Z,22.6
2018-09-08T15:14:42.000Z,22.5
2018-09-08T15:24:42.000Z,22.5
2018-09-08T15:34:42.000Z,22.5
2018-09-08T15:44:42.000Z,22.6
2018-09-08T15:54:42.000Z,22.4
2018-09-08T16:04:42.000Z,22.4
2018-09-08T16:14:42.000Z,22.4
2018-09-08T16:24:42.000Z,22.3
2018-09-08T16:34:43.000Z,22.3
2018-09-08T16:44:42.000Z,22.3
2018-09-08T16:54:42.000Z,22.1
2018-09-08T17:04:42.000Z,22.1
2018-09-08T17:14:42.000Z,22.1
2018-09-08T17:24:42.000Z,22.1
2018-09-08T17:34:42.000Z,22
2018-09-08T17:44:42.000Z,22.1
2018-09-08T17:54:42.000Z,22.1
2018-09-08T18:04:42.000Z,22
2018-09-08T18:14:42.000Z,22
2018-09-08T18:24:42.000Z,22
2018-09-08T18:34:42.000Z,22
2018-09-08T18:44:42.000Z,22
2018-09-08T18:54:42.000Z,22
2018-09-08T19:04:42.000Z,22
2018-09-08T19:14:42.000Z,22
2018-09-08T19:24:42.000Z,22
2018-09-08T19:34:42.000Z,22
2018-09-08T19:44:42.000Z,21.9
2018-09-08T19:54:42.000Z,22
2018-09-08T20:04:42.000Z,22
2018-09-08T20:14:42.000Z,21.9
2018-09-08T20:24:43.000Z,21.9
2018-09-08T20:34:43.000Z,21.9
2018-09-08T20:44:43.000Z,21.9
2018-09-08T20:54:43.000Z,21.9
2018-09-08T21:04:43.000Z,21.9
2018-09-08T21:14:43.000Z,21.9
2018-09-08T21:24:46.000Z,21.9
2018-09-08T21:34:43.000Z,21.9
2018-09-08T21:44:43.000Z,21.9
2018-09-08T21:54:43.000Z,22
2018-09-08T22:04:43.000Z,21.8
2018-09-08T22:14:43.000Z,22
2018-09-08T22:24:47.000Z,22.1
2018-09-08T22:34:43.000Z,22.1
2018-09-08T22:44:43.000Z,22.1
2018-09-08T22:54:43.000Z,22.1
2018-09-08T23:04:43.000Z,22.2
2018-09-08T23:14:44.000Z,22.3
2018-09-08T23:24:43.000Z,22.3
2018-09-08T23:34:43.000Z,22.1
2018-09-08T23:44:43.000Z,22.3
2018-09-08T23:54:43.000Z,22.3
